createdAt,value
2018-07-30T00:02:21.425Z,1.93
2018-07-30T00:04:51.123Z,1.97
2018-07-30T00:07:20.562Z,2.03
2018-07-30T00:09:49.731Z,2.00
2018-07-30T00:12:19.004Z,1.87
2018-07-30T00:14:48.216Z,1.90
2018-07-30T00:17:17.421Z,2.00
2018-07-30T00:19:46.604Z,2.00
2018-07-30T00:22:15.772Z,2.10
2018-07-30T00:24:44.990Z,2.03
2018-07-30T00:27:14.432Z,2.13
2018-07-30T00:29:43.838Z,2.00
2018-07-30T00:32:13.059Z,2.20
2018-07-30T00:34:42.230Z,1.70
2018-07-30T00:37:11.483Z,1.83
2018-07-30T00:39:40.667Z,2.10
2018-07-30T00:42:09.859Z,1.87
2018-07-30T00:44:39.099Z,2.20
2018-07-30T00:47:08.328Z,1.70
2018-07-30T00:49:37.777Z,2.13
2018-07-30T00:52:07.294Z,2.20
2018-07-30T00:54:36.468Z,2.17
2018-07-30T00:57:06.624Z,2.60
2018-07-30T00:59:36.053Z,1.90
2018-07-30T01:02:05.474Z,1.70
2018-07-30T01:04:34.658Z,2.20
2018-07-30T01:07:04.897Z,2.30
2018-07-30T01:09:34.545Z,2.17
2018-07-30T01:12:03.984Z,2.30
2018-07-30T01:14:33.579Z,2.03
2018-07-30T01:17:02.954Z,2.30
2018-07-30T01:19:32.157Z,1.90
2018-07-30T01:22:01.315Z,1.50
2018-07-30T01:24:30.589Z,2.00
2018-07-30T01:27:00.008Z,2.63
2018-07-30T01:29:29.653Z,2.47
2018-07-30T01:31:59.030Z,2.37
2018-07-30T01:34:28.265Z,1.70
2018-07-30T01:36:57.689Z,1.87
2018-07-30T01:39:27.064Z,2.17
2018-07-30T01:41:56.519Z,1.93
2018-07-30T01:44:26.157Z,2.27
2018-07-30T01:46:55.580Z,2.50
2018-07-30T01:49:24.754Z,2.10
2018-07-30T01:51:53.914Z,2.10
2018-07-30T01:54:23.106Z,2.20
2018-07-30T01:56:52.296Z,2.00
2018-07-30T01:59:21.836Z,3.50
2018-07-30T02:01:51.186Z,2.07
2018-07-30T02:04:20.384Z,2.20
2018-07-30T02:06:49.558Z,2.20
2018-07-30T02:09:18.730Z,2.27
2018-07-30T02:11:47.922Z,2.30
2018-07-30T02:14:17.361Z,2.30
2018-07-30T02:16:46.749Z,2.00
2018-07-30T02:19:15.932Z,2.40
2018-07-30T02:21:45.336Z,2.50
2018-07-30T02:24:15.033Z,2.23
2018-07-30T02:26:44.452Z,2.43
2018-07-30T02:29:13.895Z,1.80
2018-07-30T02:31:43.287Z,2.17
2018-07-30T02:34:12.789Z,2.00
2018-07-30T02:36:42.223Z,2.13
2018-07-30T02:39:13.184Z,2.10
2018-07-30T02:41:42.805Z,1.87
2018-07-30T02:44:12.259Z,2.13
2018-07-30T02:46:41.682Z,2.00
2018-07-30T02:49:11.397Z,2.50
2018-07-30T02:51:40.853Z,2.33
2018-07-30T02:54:10.581Z,2.60
2018-07-30T02:56:40.222Z,2.43
2018-07-30T02:59:09.756Z,2.13
2018-07-30T03:01:39.191Z,2.30
2018-07-30T03:04:08.581Z,2.50
2018-07-30T03:06:38.011Z,2.70
2018-07-30T03:09:08.031Z,2.57
2018-07-30T03:11:37.387Z,2.37
2018-07-30T03:14:06.559Z,1.97
2018-07-30T03:16:35.751Z,2.60
2018-07-30T03:19:05.123Z,3.10
2018-07-30T03:21:34.648Z,2.70
2018-07-30T03:24:04.025Z,2.83
2018-07-30T03:26:33.280Z,2.73
2018-07-30T03:29:02.441Z,2.90
2018-07-30T03:31:31.589Z,2.57
2018-07-30T03:34:01.121Z,3.00
2018-07-30T03:36:30.809Z,2.93
2018-07-30T03:39:00.221Z,3.47
2018-07-30T03:41:29.378Z,3.40
2018-07-30T03:43:58.593Z,3.20
2018-07-30T03:46:27.769Z,4.00
2018-07-30T03:48:56.966Z,3.20
2018-07-30T03:51:26.439Z,2.87
2018-07-30T03:53:55.809Z,3.30
2018-07-30T03:56:25.245Z,2.93
2018-07-30T03:58:54.909Z,3.03
2018-07-30T04:01:24.301Z,3.20
2018-07-30T04:03:53.822Z,3.10
2018-07-30T04:06:23.517Z,3.47
2018-07-30T04:08:53.043Z,2.90
2018-07-30T04:11:22.557Z,3.80
2018-07-30T04:13:52.419Z,3.17
2018-07-30T04:16:21.851Z,3.23
2018-07-30T04:18:51.019Z,3.20
2018-07-30T04:21:20.451Z,3.10
2018-07-30T04:23:49.863Z,3.30
2018-07-30T04:26:20.725Z,3.40
2018-07-30T04:28:49.881Z,4.20
2018-07-30T04:31:19.301Z,4.07
2018-07-30T04:33:48.698Z,4.00
2018-07-30T04:36:17.859Z,3.70
2018-07-30T04:38:47.043Z,3.40
2018-07-30T04:41:16.229Z,4.10
2018-07-30T04:43:45.756Z,3.50
2018-07-30T04:46:15.125Z,3.93
2018-07-30T04:48:44.294Z,3.33
2018-07-30T04:51:13.463Z,3.27
2018-07-30T04:53:42.919Z,4.17
2018-07-30T04:56:12.307Z,4.47
2018-07-30T04:58:41.724Z,3.60
2018-07-30T05:01:11.129Z,4.07
2018-07-30T05:03:40.519Z,4.17
2018-07-30T05:06:09.957Z,5.00
2018-07-30T05:08:40.703Z,5.57
2018-07-30T05:11:10.564Z,4.23
2018-07-30T05:13:40.236Z,4.50
2018-07-30T05:16:09.779Z,3.90
2018-07-30T05:18:40.034Z,4.83
2018-07-30T05:21:09.271Z,4.33
2018-07-30T05:23:38.453Z,4.30
2018-07-30T05:26:08.055Z,5.40
2018-07-30T05:28:37.456Z,5.17
2018-07-30T05:31:06.640Z,5.27
2018-07-30T05:33:35.855Z,5.87
2018-07-30T05:36:05.266Z,7.00
2018-07-30T05:38:34.692Z,5.50
2018-07-30T05:41:03.833Z,4.93
2018-07-30T05:43:33.268Z,5.00
2018-07-30T05:46:02.733Z,5.80
2018-07-30T05:48:31.900Z,5.13
2018-07-30T05:51:01.116Z,5.30
2018-07-30T05:53:30.296Z,5.23
2018-07-30T05:55:59.491Z,5.43
2018-07-30T05:58:28.703Z,5.30
2018-07-30T06:00:57.897Z,5.43
2018-07-30T06:03:27.490Z,5.37
2018-07-30T06:05:56.933Z,4.60
2018-07-30T06:08:26.125Z,5.80
2018-07-30T06:10:55.335Z,6.10
2018-07-30T06:13:24.571Z,5.80
2018-07-30T06:15:53.809Z,4.77
2018-07-30T06:18:22.981Z,5.27
2018-07-30T06:20:52.512Z,5.23
2018-07-30T06:23:22.277Z,4.73
2018-07-30T06:25:51.513Z,4.87
2018-07-30T06:28:20.683Z,4.30
2018-07-30T06:30:50.616Z,5.70
2018-07-30T06:33:20.073Z,4.50
2018-07-30T06:35:49.497Z,4.60
2018-07-30T06:38:18.742Z,4.47
2018-07-30T06:40:48.162Z,4.40
2018-07-30T06:43:17.635Z,4.37
2018-07-30T06:45:46.797Z,4.67
2018-07-30T06:48:16.407Z,4.23
2018-07-30T06:50:45.860Z,4.37
2018-07-30T06:53:19.386Z,4.10
2018-07-30T06:55:48.792Z,5.20
2018-07-30T06:58:18.985Z,4.73
2018-07-30T07:00:48.183Z,3.60
2018-07-30T07:03:17.447Z,4.60
2018-07-30T07:05:46.871Z,4.40
2018-07-30T07:08:16.299Z,3.93
2018-07-30T07:10:45.769Z,3.50
2018-07-30T07:13:15.150Z,3.17
2018-07-30T07:15:44.355Z,3.30
2018-07-30T07:18:13.563Z,3.30
2018-07-30T07:20:42.804Z,3.10
2018-07-30T07:23:12.224Z,2.87
2018-07-30T07:25:41.623Z,3.07
2018-07-30T07:28:10.826Z,2.90
2018-07-30T07:30:39.990Z,2.13
2018-07-30T07:33:09.458Z,2.83
2018-07-30T07:35:38.887Z,2.13
2018-07-30T07:38:08.293Z,2.33
2018-07-30T07:40:37.708Z,2.20
2018-07-30T07:43:06.891Z,2.20
2018-07-30T07:45:36.101Z,1.80
2018-07-30T07:48:05.552Z,2.03
2018-07-30T07:50:35.297Z,2.20
2018-07-30T07:53:04.872Z,1.93
2018-07-30T07:55:34.277Z,2.27
2018-07-30T07:58:03.511Z,2.30
2018-07-30T08:00:33.021Z,1.60
2018-07-30T08:03:02.457Z,2.03
2018-07-30T08:05:31.606Z,2.17
2018-07-30T08:08:00.853Z,1.80
2018-07-30T08:10:32.335Z,2.10
2018-07-30T08:13:01.737Z,1.90
2018-07-30T08:15:31.167Z,1.77
2018-07-30T08:18:00.543Z,2.10
2018-07-30T08:20:29.993Z,1.90
2018-07-30T08:22:59.397Z,2.20
2018-07-30T08:25:28.722Z,1.67
2018-07-30T08:27:57.921Z,2.40
2018-07-30T08:30:27.330Z,1.80
2018-07-30T08:32:56.791Z,1.60
2018-07-30T08:35:26.205Z,1.90
2018-07-30T08:37:55.612Z,1.70
2018-07-30T08:40:24.830Z,2.57
2018-07-30T08:42:54.239Z,1.93
2018-07-30T08:45:23.655Z,1.63
2018-07-30T08:47:53.094Z,2.33
2018-07-30T08:50:22.750Z,2.33
2018-07-30T08:52:52.736Z,2.10
2018-07-30T08:55:22.183Z,2.30
2018-07-30T08:57:51.559Z,2.20
2018-07-30T09:00:20.896Z,2.17
2018-07-30T09:02:50.346Z,2.30
2018-07-30T09:05:19.728Z,2.47
2018-07-30T09:07:48.921Z,2.03
2018-07-30T09:10:18.083Z,2.23
2018-07-30T09:12:47.352Z,1.90
2018-07-30T09:15:16.727Z,1.70
2018-07-30T09:17:46.111Z,1.80
2018-07-30T09:20:15.542Z,1.70
2018-07-30T09:22:44.978Z,1.73
2018-07-30T09:25:14.177Z,1.87
2018-07-30T09:27:43.356Z,2.10
2018-07-30T09:30:12.622Z,1.90
2018-07-30T09:32:41.825Z,1.90
2018-07-30T09:35:11.012Z,2.43
2018-07-30T09:37:40.260Z,1.97
2018-07-30T09:40:09.488Z,2.93
2018-07-30T09:42:38.743Z,2.03
2018-07-30T09:45:07.936Z,1.90
2018-07-30T09:47:37.144Z,2.53
2018-07-30T09:50:06.326Z,2.20
2018-07-30T09:52:35.543Z,2.83
2018-07-30T09:55:04.757Z,2.50
2018-07-30T09:57:33.989Z,2.37
2018-07-30T10:00:03.419Z,2.10
2018-07-30T10:02:32.807Z,2.00
2018-07-30T10:05:02.287Z,2.43
2018-07-30T10:07:31.981Z,2.67
2018-07-30T10:10:01.339Z,2.30
2018-07-30T10:12:30.519Z,2.20
2018-07-30T10:14:59.973Z,2.37
2018-07-30T10:17:29.662Z,2.10
2018-07-30T10:19:59.107Z,2.23
2018-07-30T10:22:28.345Z,1.80
2018-07-30T10:24:57.518Z,2.30
2018-07-30T10:27:26.977Z,2.00
2018-07-30T10:29:56.717Z,2.40
2018-07-30T10:32:26.377Z,2.23
2018-07-30T10:34:56.143Z,2.20
2018-07-30T10:37:25.521Z,2.50
2018-07-30T10:39:54.744Z,2.70
2018-07-30T10:42:23.893Z,2.30
2018-07-30T10:44:53.105Z,2.50
2018-07-30T10:47:22.503Z,2.30
2018-07-30T10:49:51.959Z,1.90
2018-07-30T10:52:21.420Z,1.93
2018-07-30T10:54:51.121Z,2.23
2018-07-30T10:57:20.758Z,2.00
2018-07-30T10:59:50.146Z,2.20
2018-07-30T11:02:19.351Z,2.47
2018-07-30T11:04:48.581Z,2.00
2018-07-30T11:07:18.061Z,1.97
2018-07-30T11:09:47.726Z,2.30
2018-07-30T11:12:17.119Z,2.50
2018-07-30T11:14:46.336Z,1.77
2018-07-30T11:17:15.515Z,1.70
2018-07-30T11:19:44.960Z,1.60
2018-07-30T11:22:14.394Z,1.70
2018-07-30T11:24:43.658Z,1.70
2018-07-30T11:27:13.056Z,1.57
2018-07-30T11:29:42.462Z,1.67
2018-07-30T11:32:11.716Z,1.70
2018-07-30T11:34:41.205Z,2.20
2018-07-30T11:37:10.925Z,2.00
2018-07-30T11:39:40.629Z,1.70
2018-07-30T11:42:10.009Z,1.80
2018-07-30T11:44:39.188Z,1.67
2018-07-30T11:47:08.684Z,2.10
2018-07-30T11:49:38.508Z,2.10
2018-07-30T11:52:08.227Z,1.97
2018-07-30T11:54:37.454Z,2.33
2018-07-30T11:57:07.015Z,2.00
2018-07-30T11:59:36.512Z,1.70
2018-07-30T12:02:05.757Z,1.87
2018-07-30T12:04:34.971Z,1.67
2018-07-30T12:07:04.404Z,1.67
2018-07-30T12:09:34.039Z,2.03
2018-07-30T12:12:03.439Z,2.30
2018-07-30T12:14:33.022Z,1.90
2018-07-30T12:17:03.805Z,1.90
2018-07-30T12:19:33.449Z,1.53
2018-07-30T12:22:03.128Z,1.90
2018-07-30T12:24:32.778Z,1.80
2018-07-30T12:27:02.906Z,1.80
2018-07-30T12:29:32.515Z,1.93
2018-07-30T12:32:01.914Z,1.60
2018-07-30T12:34:31.315Z,1.80
2018-07-30T12:37:01.033Z,1.40
2018-07-30T12:39:30.445Z,1.70
2018-07-30T12:41:59.650Z,2.03
2018-07-30T12:44:29.083Z,1.77
2018-07-30T12:46:58.483Z,1.60
2018-07-30T12:49:27.959Z,1.57
2018-07-30T12:51:57.376Z,1.50
2018-07-30T12:54:26.800Z,1.60
2018-07-30T12:56:56.363Z,1.63
2018-07-30T12:59:25.498Z,1.40
2018-07-30T13:01:54.928Z,1.50
2018-07-30T13:04:24.334Z,1.70
2018-07-30T13:06:53.769Z,1.43
2018-07-30T13:09:23.452Z,1.60
2018-07-30T13:11:52.906Z,1.60
2018-07-30T13:14:22.100Z,1.70
2018-07-30T13:16:51.568Z,1.70
2018-07-30T13:19:21.174Z,1.50
2018-07-30T13:21:50.666Z,2.10
2018-07-30T13:24:20.075Z,2.30
2018-07-30T13:26:49.541Z,2.10
2018-07-30T13:29:18.694Z,2.00
2018-07-30T13:31:47.856Z,1.70
2018-07-30T13:34:17.350Z,2.00
2018-07-30T13:36:46.856Z,2.00
2018-07-30T13:39:16.258Z,2.03
2018-07-30T13:41:45.938Z,1.75
2018-07-30T13:44:15.175Z,2.00
2018-07-30T13:46:44.345Z,2.20
2018-07-30T13:49:13.538Z,2.17
2018-07-30T13:51:42.716Z,1.90
2018-07-30T13:54:12.028Z,2.13
2018-07-30T13:56:41.120Z,1.93
2018-07-30T13:59:10.346Z,1.90
2018-07-30T14:01:39.537Z,2.07
2018-07-30T14:04:08.973Z,2.30
2018-07-30T14:06:39.602Z,1.83
2018-07-30T14:09:11.395Z,1.90
2018-07-30T14:11:40.648Z,1.70
2018-07-30T14:14:10.820Z,2.20
2018-07-30T14:16:40.991Z,1.70
2018-07-30T14:19:10.240Z,2.13
2018-07-30T14:21:39.416Z,1.80
2018-07-30T14:24:09.650Z,1.80
2018-07-30T14:26:39.080Z,1.50
2018-07-30T14:29:08.335Z,1.83
2018-07-30T14:31:37.506Z,1.83
2018-07-30T14:34:06.986Z,1.70
2018-07-30T14:36:36.651Z,1.80
2018-07-30T14:39:06.935Z,2.10
2018-07-30T14:41:36.131Z,1.80
2018-07-30T14:44:05.604Z,2.07
2018-07-30T14:46:35.210Z,1.90
2018-07-30T14:49:04.712Z,2.20
2018-07-30T14:51:34.103Z,1.73
2018-07-30T14:54:03.537Z,2.20
2018-07-30T14:56:32.930Z,1.90
2018-07-30T14:59:02.127Z,2.00
2018-07-30T15:01:31.678Z,2.20
2018-07-30T15:04:01.132Z,1.93
2018-07-30T15:06:30.558Z,1.87
2018-07-30T15:08:59.980Z,2.23
2018-07-30T15:11:29.418Z,2.20
2018-07-30T15:13:58.828Z,2.13
2018-07-30T15:16:28.234Z,2.27
2018-07-30T15:18:57.406Z,2.10
2018-07-30T15:21:26.821Z,2.20
2018-07-30T15:23:56.276Z,1.87
2018-07-30T15:26:25.724Z,2.43
2018-07-30T15:28:55.224Z,2.63
2018-07-30T15:31:24.552Z,2.17
2018-07-30T15:33:54.014Z,2.50
2018-07-30T15:36:23.659Z,2.00
2018-07-30T15:38:53.314Z,1.90
2018-07-30T15:41:22.759Z,2.37
2018-07-30T15:43:52.236Z,2.13
2018-07-30T15:46:21.633Z,1.97
2018-07-30T15:48:50.829Z,2.30
2018-07-30T15:51:20.021Z,1.93
2018-07-30T15:53:49.222Z,1.87
2018-07-30T15:56:18.503Z,2.60
2018-07-30T15:58:47.691Z,2.23
2018-07-30T16:01:16.854Z,2.53
2018-07-30T16:03:46.010Z,2.50
2018-07-30T16:06:15.258Z,2.10
2018-07-30T16:08:44.450Z,2.03
2018-07-30T16:11:13.613Z,2.17
2018-07-30T16:13:42.823Z,2.47
2018-07-30T16:16:13.307Z,2.00
2018-07-30T16:18:42.486Z,2.37
2018-07-30T16:21:11.672Z,2.30
2018-07-30T16:23:40.856Z,2.33
2018-07-30T16:26:10.066Z,2.40
2018-07-30T16:28:39.458Z,2.63
2018-07-30T16:31:08.602Z,2.33
2018-07-30T16:33:38.108Z,2.03
2018-07-30T16:36:07.546Z,2.20
2018-07-30T16:38:36.689Z,2.23
2018-07-30T16:41:05.951Z,2.27
2018-07-30T16:43:35.783Z,2.40
2018-07-30T16:46:05.065Z,2.20
2018-07-30T16:48:34.309Z,2.60
2018-07-30T16:51:03.560Z,2.80
2018-07-30T16:53:32.709Z,2.30
2018-07-30T16:56:01.929Z,2.97
2018-07-30T16:58:31.150Z,2.00
2018-07-30T17:01:00.362Z,2.30
2018-07-30T17:03:29.562Z,2.50
2018-07-30T17:05:58.825Z,2.43
2018-07-30T17:08:28.038Z,2.20
2018-07-30T17:10:57.211Z,2.27
2018-07-30T17:13:26.385Z,2.77
2018-07-30T17:15:55.591Z,2.93
2018-07-30T17:18:24.831Z,2.80
2018-07-30T17:20:54.255Z,2.23
2018-07-30T17:23:23.692Z,2.43
2018-07-30T17:25:52.877Z,2.17
2018-07-30T17:28:22.079Z,2.33
2018-07-30T17:30:51.279Z,2.30
2018-07-30T17:33:20.467Z,2.10
2018-07-30T17:35:50.946Z,2.43
2018-07-30T17:38:20.145Z,2.20
2018-07-30T17:40:49.438Z,2.47
2018-07-30T17:43:18.875Z,2.17
2018-07-30T17:45:48.369Z,2.00
2018-07-30T17:48:17.563Z,2.40
2018-07-30T17:50:49.308Z,2.10
2018-07-30T17:53:18.729Z,2.20
2018-07-30T17:55:47.891Z,2.20
2018-07-30T17:58:17.195Z,2.50
2018-07-30T18:00:46.392Z,2.33
2018-07-30T18:03:15.601Z,2.17
2018-07-30T18:05:44.830Z,2.17
2018-07-30T18:08:14.086Z,2.10
2018-07-30T18:10:43.546Z,2.70
2018-07-30T18:13:13.030Z,2.37
2018-07-30T18:15:42.278Z,2.13
2018-07-30T18:18:11.480Z,2.53
2018-07-30T18:20:40.920Z,2.30
2018-07-30T18:23:10.424Z,2.40
2018-07-30T18:25:39.608Z,1.90
2018-07-30T18:28:09.071Z,2.60
2018-07-30T18:30:38.710Z,2.60
2018-07-30T18:33:08.747Z,2.40
2018-07-30T18:35:38.308Z,2.40
2018-07-30T18:38:07.519Z,2.40
2018-07-30T18:40:36.720Z,2.40
2018-07-30T18:43:05.916Z,2.30
2018-07-30T18:45:35.141Z,2.47
2018-07-30T18:48:04.556Z,2.30
2018-07-30T18:50:34.080Z,2.30
2018-07-30T18:53:03.496Z,2.53
2018-07-30T18:55:32.998Z,2.70
2018-07-30T18:58:03.406Z,2.80
2018-07-30T19:00:32.905Z,2.67
2018-07-30T19:03:02.577Z,2.63
2018-07-30T19:05:32.062Z,2.73
2018-07-30T19:08:01.500Z,2.90
2018-07-30T19:10:31.011Z,3.50
2018-07-30T19:13:00.177Z,3.63
2018-07-30T19:15:29.351Z,3.83
2018-07-30T19:17:58.571Z,3.70
2018-07-30T19:20:27.771Z,3.27
2018-07-30T19:22:57.307Z,2.90
2018-07-30T19:25:26.981Z,3.57
2018-07-30T19:27:56.660Z,3.03
2018-07-30T19:30:26.362Z,3.30
2018-07-30T19:32:55.776Z,4.07
2018-07-30T19:35:24.990Z,4.00
2018-07-30T19:38:00.845Z,3.10
2018-07-30T19:40:30.294Z,3.70
2018-07-30T19:42:59.760Z,3.53
2018-07-30T19:45:29.173Z,3.60
2018-07-30T19:47:58.648Z,3.37
2018-07-30T19:50:28.114Z,3.57
2018-07-30T19:52:57.558Z,3.13
2018-07-30T19:55:27.093Z,3.90
2018-07-30T19:57:56.672Z,3.73
2018-07-30T20:00:25.962Z,4.13
2018-07-30T20:02:55.695Z,3.87
2018-07-30T20:05:24.891Z,3.30
2018-07-30T20:07:54.072Z,3.97
2018-07-30T20:10:23.276Z,3.37
2018-07-30T20:12:52.767Z,3.47
2018-07-30T20:15:22.430Z,3.40
2018-07-30T20:17:51.818Z,3.10
2018-07-30T20:20:21.294Z,3.87
2018-07-30T20:22:50.780Z,3.93
2018-07-30T20:25:20.223Z,3.23
2018-07-30T20:27:49.689Z,3.10
2018-07-30T20:30:18.954Z,3.10
2018-07-30T20:32:48.206Z,3.17
2018-07-30T20:35:17.642Z,3.60
2018-07-30T20:37:47.308Z,3.07
2018-07-30T20:40:17.065Z,3.83
2018-07-30T20:42:46.510Z,3.70
2018-07-30T20:45:15.678Z,3.00
2018-07-30T20:47:45.138Z,3.27
2018-07-30T20:50:14.568Z,3.77
2018-07-30T20:52:43.810Z,3.07
2018-07-30T20:55:13.057Z,3.77
2018-07-30T20:57:42.281Z,3.80
2018-07-30T21:00:11.500Z,3.63
2018-07-30T21:02:40.720Z,3.80
2018-07-30T21:05:10.099Z,3.67
2018-07-30T21:07:39.263Z,4.97
2018-07-30T21:10:08.427Z,3.40
2018-07-30T21:12:37.905Z,3.30
2018-07-30T21:15:07.758Z,3.67
2018-07-30T21:17:36.958Z,2.97
2018-07-30T21:20:06.197Z,3.90
2018-07-30T21:22:35.400Z,3.67
2018-07-30T21:25:04.646Z,3.10
2018-07-30T21:27:33.797Z,3.90
2018-07-30T21:30:03.009Z,3.37
2018-07-30T21:32:32.290Z,3.20
2018-07-30T21:35:01.471Z,4.00
2018-07-30T21:37:30.949Z,3.77
2018-07-30T21:40:00.341Z,3.50
2018-07-30T21:42:29.538Z,3.33
2018-07-30T21:44:58.757Z,3.40
2018-07-30T21:47:27.940Z,3.37
2018-07-30T21:49:57.175Z,3.70
2018-07-30T21:52:26.353Z,3.27
2018-07-30T21:54:55.583Z,3.43
2018-07-30T21:57:24.794Z,3.13
2018-07-30T21:59:54.085Z,3.67
2018-07-30T22:02:23.337Z,3.20
2018-07-30T22:04:52.639Z,3.40
2018-07-30T22:07:21.844Z,3.50
2018-07-30T22:09:51.016Z,3.00
2018-07-30T22:12:20.236Z,3.80
2018-07-30T22:14:49.456Z,3.80
2018-07-30T22:17:18.648Z,3.60
2018-07-30T22:19:47.842Z,3.97
2018-07-30T22:22:17.039Z,3.27
2018-07-30T22:24:46.516Z,3.33
2018-07-30T22:27:15.906Z,4.07
2018-07-30T22:29:45.108Z,3.97
2018-07-30T22:32:14.324Z,3.50
2018-07-30T22:34:43.527Z,3.73
2018-07-30T22:37:12.713Z,4.67
2018-07-30T22:39:42.234Z,3.97
2018-07-30T22:42:11.835Z,3.67
2018-07-30T22:44:41.259Z,3.93
2018-07-30T22:47:10.466Z,3.50
2018-07-30T22:49:39.915Z,3.40
2018-07-30T22:52:09.345Z,3.30
2018-07-30T22:54:38.809Z,3.70
2018-07-30T22:57:08.247Z,3.80
2018-07-30T22:59:37.431Z,3.27
2018-07-30T23:02:06.623Z,4.80
2018-07-30T23:04:36.467Z,4.20
2018-07-30T23:07:05.663Z,3.43
2018-07-30T23:09:34.883Z,4.10
2018-07-30T23:12:04.143Z,3.90
2018-07-30T23:14:33.292Z,4.27
2018-07-30T23:17:02.725Z,4.10
2018-07-30T23:19:32.421Z,4.10
2018-07-30T23:22:02.072Z,4.17
2018-07-30T23:24:31.484Z,3.90
2018-07-30T23:27:00.963Z,4.40
2018-07-30T23:29:30.364Z,4.33
2018-07-30T23:31:59.727Z,3.90
2018-07-30T23:34:29.187Z,4.30
2018-07-30T23:36:58.629Z,4.50
2018-07-30T23:39:27.761Z,4.10
2018-07-30T23:41:57.068Z,4.17
2018-07-30T23:44:26.222Z,4.07
2018-07-30T23:46:55.461Z,4.43
2018-07-30T23:49:24.640Z,4.43
2018-07-30T23:51:53.832Z,3.93
2018-07-30T23:54:23.073Z,3.50
2018-07-30T23:56:52.235Z,4.07
2018-07-30T23:59:21.451Z,4.17
